createdAt,value
2019-01-18T00:01:31.504Z,5.37
2019-01-18T00:03:24.723Z,5.77
2019-01-18T00:05:18.404Z,5.03
2019-01-18T00:07:11.804Z,4.03
2019-01-18T00:09:06.453Z,4.13
2019-01-18T00:11:00.346Z,5.23
2019-01-18T00:12:53.537Z,2.57
2019-01-18T00:14:46.566Z,4.63
2019-01-18T00:16:39.874Z,4.03
2019-01-18T00:18:33.159Z,3.53
2019-01-18T00:20:26.342Z,4.03
2019-01-18T00:22:19.820Z,4.20
2019-01-18T00:24:13.149Z,3.30
2019-01-18T00:26:06.460Z,3.77
2019-01-18T00:27:59.821Z,4.57
2019-01-18T00:29:53.546Z,4.67
2019-01-18T00:31:46.893Z,5.10
2019-01-18T00:33:40.686Z,4.40
2019-01-18T00:35:34.001Z,4.90
2019-01-18T00:37:27.268Z,5.40
2019-01-18T00:39:20.559Z,3.83
2019-01-18T00:41:14.170Z,4.07
2019-01-18T00:43:07.558Z,4.13
2019-01-18T00:45:01.183Z,4.27
2019-01-18T00:46:54.873Z,4.03
2019-01-18T00:48:49.402Z,2.73
2019-01-18T00:50:43.024Z,2.60
2019-01-18T00:52:36.164Z,2.80
2019-01-18T00:54:29.567Z,2.27
2019-01-18T00:56:23.332Z,2.33
2019-01-18T00:58:17.422Z,3.07
2019-01-18T01:00:22.050Z,2.97
2019-01-18T01:02:15.331Z,3.23
2019-01-18T01:04:08.654Z,3.23
2019-01-18T01:06:03.445Z,3.23
2019-01-18T01:07:56.869Z,2.40
2019-01-18T01:09:49.993Z,3.20
2019-01-18T01:11:43.156Z,3.50
2019-01-18T01:13:36.263Z,4.43
2019-01-18T01:15:29.383Z,3.47
2019-01-18T01:17:22.803Z,3.43
2019-01-18T01:19:16.133Z,4.40
2019-01-18T01:21:09.422Z,3.70
2019-01-18T01:23:02.803Z,4.53
2019-01-18T01:24:56.763Z,3.27
2019-01-18T01:26:50.089Z,3.77
2019-01-18T01:28:43.659Z,4.37
2019-01-18T01:30:37.155Z,4.10
2019-01-18T01:32:31.135Z,4.50
2019-01-18T01:34:24.645Z,3.63
2019-01-18T01:36:18.480Z,4.33
2019-01-18T01:38:11.625Z,4.93
2019-01-18T01:40:05.478Z,3.43
2019-01-18T01:41:58.714Z,3.77
2019-01-18T01:43:51.938Z,3.67
2019-01-18T01:45:45.161Z,3.70
2019-01-18T01:47:38.585Z,3.93
2019-01-18T01:49:32.018Z,4.10
2019-01-18T01:51:25.518Z,4.47
2019-01-18T01:53:18.994Z,4.30
2019-01-18T01:55:12.442Z,3.60
2019-01-18T01:57:05.756Z,3.60
2019-01-18T01:58:59.316Z,3.30
2019-01-18T02:00:52.789Z,1.90
2019-01-18T02:02:46.128Z,3.67
2019-01-18T02:04:39.388Z,2.90
2019-01-18T02:06:32.789Z,3.77
2019-01-18T02:08:25.890Z,3.47
2019-01-18T02:10:22.153Z,4.17
2019-01-18T02:12:15.783Z,3.77
2019-01-18T02:14:10.863Z,4.20
2019-01-18T02:16:04.933Z,2.73
2019-01-18T02:17:58.684Z,2.40
2019-01-18T02:19:52.383Z,3.43
2019-01-18T02:21:46.203Z,3.50
2019-01-18T02:23:39.871Z,2.27
2019-01-18T02:25:33.683Z,2.93
2019-01-18T02:27:27.128Z,2.90
2019-01-18T02:29:20.688Z,3.17
2019-01-18T02:31:13.960Z,4.07
2019-01-18T02:33:07.759Z,2.30
2019-01-18T02:35:01.061Z,3.20
2019-01-18T02:36:54.298Z,2.93
2019-01-18T02:38:47.646Z,2.40
2019-01-18T02:40:40.704Z,2.90
2019-01-18T02:42:33.898Z,3.00
2019-01-18T02:44:27.817Z,2.80
2019-01-18T02:46:21.254Z,3.00
2019-01-18T02:48:17.205Z,3.17
2019-01-18T02:50:11.297Z,3.10
2019-01-18T02:52:04.768Z,3.10
2019-01-18T02:53:58.119Z,2.17
2019-01-18T02:55:51.647Z,2.70
2019-01-18T02:57:44.862Z,2.30
2019-01-18T02:59:38.000Z,2.57
2019-01-18T03:01:31.681Z,2.33
2019-01-18T03:03:25.404Z,2.87
2019-01-18T03:05:20.338Z,2.27
2019-01-18T03:07:15.158Z,3.13
2019-01-18T03:09:11.003Z,2.57
2019-01-18T03:11:04.317Z,1.97
2019-01-18T03:12:57.705Z,1.50
2019-01-18T03:14:51.092Z,1.30
2019-01-18T03:16:44.357Z,1.67
2019-01-18T03:18:38.135Z,0.93
2019-01-18T03:20:31.130Z,0.80
2019-01-18T03:22:24.010Z,0.50
2019-01-18T03:24:19.347Z,0.70
2019-01-18T03:26:12.481Z,0.83
2019-01-18T03:28:05.628Z,0.70
2019-01-18T03:29:58.958Z,1.00
2019-01-18T03:31:51.979Z,0.67
2019-01-18T03:33:46.130Z,0.93
2019-01-18T03:35:39.290Z,0.50
2019-01-18T03:37:32.537Z,0.40
2019-01-18T03:39:25.696Z,0.53
2019-01-18T03:41:19.958Z,0.50
2019-01-18T03:43:12.785Z,0.30
2019-01-18T03:45:08.012Z,0.40
2019-01-18T03:47:01.212Z,0.50
2019-01-18T03:48:54.441Z,0.50
2019-01-18T03:50:47.451Z,0.50
2019-01-18T03:52:41.170Z,0.30
2019-01-18T03:54:34.485Z,0.60
2019-01-18T03:56:27.526Z,0.70
2019-01-18T03:58:20.696Z,0.60
2019-01-18T04:00:40.637Z,0.60
2019-01-18T04:02:33.586Z,0.60
2019-01-18T04:04:27.798Z,0.53
2019-01-18T04:06:21.003Z,0.60
2019-01-18T04:08:14.038Z,0.40
2019-01-18T04:10:08.601Z,0.50
2019-01-18T04:12:01.869Z,0.60
2019-01-18T04:13:56.429Z,0.70
2019-01-18T04:15:51.112Z,0.60
2019-01-18T04:17:44.273Z,0.50
2019-01-18T04:19:37.527Z,0.60
2019-01-18T04:21:30.700Z,0.77
2019-01-18T04:23:23.984Z,0.70
2019-01-18T04:25:21.473Z,1.03
2019-01-18T04:27:14.800Z,0.60
2019-01-18T04:29:08.237Z,0.60
2019-01-18T04:31:01.335Z,0.70
2019-01-18T04:32:54.478Z,0.80
2019-01-18T04:34:47.849Z,0.50
2019-01-18T04:36:40.839Z,0.60
2019-01-18T04:38:34.346Z,0.50
2019-01-18T04:40:29.237Z,0.50
2019-01-18T04:42:22.347Z,0.53
2019-01-18T04:44:15.349Z,0.57
2019-01-18T04:46:09.963Z,0.60
2019-01-18T04:48:03.283Z,0.47
2019-01-18T04:49:56.794Z,0.60
2019-01-18T04:51:50.866Z,0.60
2019-01-18T04:53:44.208Z,0.50
2019-01-18T04:55:37.255Z,0.70
2019-01-18T04:57:30.710Z,0.77
2019-01-18T04:59:23.881Z,0.60
2019-01-18T05:01:17.444Z,0.87
2019-01-18T05:03:10.805Z,0.70
2019-01-18T05:05:04.035Z,0.70
2019-01-18T05:06:57.080Z,1.20
2019-01-18T05:08:50.279Z,0.90
2019-01-18T05:10:45.239Z,1.30
2019-01-18T05:12:39.083Z,1.30
2019-01-18T05:14:32.212Z,1.23
2019-01-18T05:16:25.643Z,1.30
2019-01-18T05:18:19.199Z,1.00
2019-01-18T05:20:12.635Z,1.00
2019-01-18T05:22:05.604Z,1.10
2019-01-18T05:24:00.373Z,1.30
2019-01-18T05:25:53.555Z,1.27
2019-01-18T05:27:47.067Z,1.60
2019-01-18T05:29:41.627Z,1.07
2019-01-18T05:31:34.780Z,1.17
2019-01-18T05:33:27.838Z,1.10
2019-01-18T05:35:21.188Z,1.50
2019-01-18T05:37:14.135Z,0.60
2019-01-18T05:39:08.656Z,1.10
2019-01-18T05:41:01.805Z,1.33
2019-01-18T05:42:54.924Z,0.90
2019-01-18T05:44:48.059Z,0.90
2019-01-18T05:46:41.778Z,1.20
2019-01-18T05:48:36.714Z,0.60
2019-01-18T05:50:32.445Z,0.70
2019-01-18T05:52:25.774Z,0.70
2019-01-18T05:54:19.973Z,0.90
2019-01-18T05:56:13.113Z,0.70
2019-01-18T05:58:06.655Z,0.80
2019-01-18T05:59:59.864Z,1.07
2019-01-18T06:01:52.954Z,0.70
2019-01-18T06:03:47.095Z,1.17
2019-01-18T06:05:43.344Z,0.77
2019-01-18T06:07:36.385Z,0.93
2019-01-18T06:09:29.919Z,1.03
2019-01-18T06:11:22.967Z,0.97
2019-01-18T06:13:15.977Z,1.07
2019-01-18T06:15:09.311Z,0.83
2019-01-18T06:17:02.476Z,1.00
2019-01-18T06:18:55.651Z,0.90
2019-01-18T06:20:48.791Z,1.30
2019-01-18T06:22:41.933Z,0.77
2019-01-18T06:24:36.318Z,0.90
2019-01-18T06:26:29.727Z,0.70
2019-01-18T06:28:23.286Z,0.70
2019-01-18T06:30:17.995Z,0.70
2019-01-18T06:32:11.379Z,0.60
2019-01-18T06:34:04.451Z,1.23
2019-01-18T06:35:57.524Z,0.80
2019-01-18T06:37:50.590Z,0.70
2019-01-18T06:39:43.710Z,1.40
2019-01-18T06:41:44.141Z,1.17
2019-01-18T06:43:37.361Z,0.90
2019-01-18T06:45:31.411Z,1.40
2019-01-18T06:47:25.108Z,1.10
2019-01-18T06:49:20.130Z,0.90
2019-01-18T06:51:13.136Z,1.10
2019-01-18T06:53:06.620Z,1.07
2019-01-18T06:55:00.178Z,1.00
2019-01-18T06:56:53.132Z,1.00
2019-01-18T06:58:46.378Z,1.07
2019-01-18T07:00:39.345Z,1.03
2019-01-18T07:02:32.606Z,1.30
2019-01-18T07:04:25.528Z,0.70
2019-01-18T07:06:19.757Z,1.03
2019-01-18T07:08:12.898Z,1.10
2019-01-18T07:10:06.659Z,1.07
2019-01-18T07:11:59.991Z,1.30
2019-01-18T07:13:52.888Z,1.50
2019-01-18T07:15:45.859Z,1.23
2019-01-18T07:17:39.489Z,1.17
2019-01-18T07:19:32.948Z,1.07
2019-01-18T07:21:25.928Z,0.80
2019-01-18T07:23:19.043Z,0.73
2019-01-18T07:25:16.817Z,0.70
2019-01-18T07:27:11.169Z,0.83
2019-01-18T07:29:04.036Z,0.43
2019-01-18T07:30:57.301Z,0.97
2019-01-18T07:32:51.939Z,0.80
2019-01-18T07:34:45.317Z,1.13
2019-01-18T07:36:38.618Z,1.20
2019-01-18T07:38:33.358Z,1.60
2019-01-18T07:40:27.191Z,1.50
2019-01-18T07:42:20.353Z,1.00
2019-01-18T07:44:13.539Z,1.27
2019-01-18T07:46:06.448Z,1.03
2019-01-18T07:48:00.175Z,1.17
2019-01-18T07:49:53.328Z,1.47
2019-01-18T07:51:46.550Z,0.90
2019-01-18T07:53:39.778Z,0.60
2019-01-18T07:55:33.054Z,1.20
2019-01-18T07:57:26.071Z,8.23
2019-01-18T07:59:19.518Z,2.07
2019-01-18T08:01:12.458Z,1.37
2019-01-18T08:03:05.792Z,1.70
2019-01-18T08:04:59.028Z,0.80
2019-01-18T08:06:52.045Z,1.20
2019-01-18T08:08:45.002Z,1.00
2019-01-18T08:10:39.380Z,1.70
2019-01-18T08:12:32.478Z,0.53
2019-01-18T08:14:25.576Z,1.20
2019-01-18T08:16:18.256Z,1.50
2019-01-18T08:18:11.503Z,2.17
2019-01-18T08:20:04.588Z,1.30
2019-01-18T08:21:59.508Z,1.60
2019-01-18T08:23:52.758Z,2.37
2019-01-18T08:25:46.048Z,1.40
2019-01-18T08:27:39.128Z,1.60
2019-01-18T08:29:32.369Z,1.80
2019-01-18T08:31:28.982Z,1.30
2019-01-18T08:33:21.129Z,2.00
2019-01-18T08:35:20.679Z,1.20
2019-01-18T08:37:13.922Z,1.63
2019-01-18T08:39:10.081Z,2.03
2019-01-18T08:41:03.319Z,2.07
2019-01-18T08:42:56.621Z,2.07
2019-01-18T08:44:49.592Z,1.53
2019-01-18T08:46:42.692Z,1.67
2019-01-18T08:48:36.065Z,1.20
2019-01-18T08:50:29.150Z,1.40
2019-01-18T08:52:23.172Z,2.10
2019-01-18T08:54:16.423Z,1.27
2019-01-18T08:56:11.272Z,1.00
2019-01-18T08:58:04.471Z,1.50
2019-01-18T08:59:57.997Z,1.20
2019-01-18T09:01:51.422Z,1.43
2019-01-18T09:03:44.572Z,1.80
2019-01-18T09:05:37.886Z,1.57
2019-01-18T09:07:31.322Z,2.07
2019-01-18T09:09:24.482Z,1.30
2019-01-18T09:11:18.022Z,1.87
2019-01-18T09:13:11.087Z,1.37
2019-01-18T09:15:04.508Z,1.10
2019-01-18T09:16:57.862Z,1.60
2019-01-18T09:18:51.342Z,1.43
2019-01-18T09:20:44.936Z,1.90
2019-01-18T09:22:38.058Z,1.57
2019-01-18T09:24:31.030Z,1.70
2019-01-18T09:26:24.032Z,1.50
2019-01-18T09:28:17.572Z,1.63
2019-01-18T09:30:15.252Z,1.70
2019-01-18T09:32:08.354Z,3.33
2019-01-18T09:34:01.712Z,2.73
2019-01-18T09:35:54.717Z,2.27
2019-01-18T09:37:47.987Z,1.90
2019-01-18T09:39:40.960Z,1.77
2019-01-18T09:41:34.228Z,3.20
2019-01-18T09:43:27.542Z,1.77
2019-01-18T09:45:21.274Z,2.33
2019-01-18T09:47:14.172Z,2.37
2019-01-18T09:49:08.404Z,2.20
2019-01-18T09:51:02.771Z,1.83
2019-01-18T09:52:55.833Z,1.40
2019-01-18T09:54:49.039Z,2.93
2019-01-18T09:56:42.762Z,1.90
2019-01-18T09:58:35.864Z,1.97
2019-01-18T10:00:32.375Z,2.13
2019-01-18T10:02:27.689Z,1.83
2019-01-18T10:04:20.916Z,1.10
2019-01-18T10:06:16.679Z,1.23
2019-01-18T10:08:13.805Z,1.53
2019-01-18T10:10:12.573Z,2.23
2019-01-18T10:12:06.240Z,1.90
2019-01-18T10:14:00.626Z,1.97
2019-01-18T10:15:54.549Z,1.33
2019-01-18T10:17:47.611Z,1.10
2019-01-18T10:19:40.839Z,0.87
2019-01-18T10:21:34.049Z,1.20
2019-01-18T10:23:27.184Z,1.33
2019-01-18T10:25:20.324Z,1.40
2019-01-18T10:27:15.817Z,1.10
2019-01-18T10:29:11.044Z,1.20
2019-01-18T10:31:04.436Z,1.33
2019-01-18T10:32:57.727Z,0.93
2019-01-18T10:34:50.789Z,1.07
2019-01-18T10:36:43.776Z,0.90
2019-01-18T10:38:36.801Z,1.13
2019-01-18T10:40:31.251Z,1.33
2019-01-18T10:42:24.975Z,0.77
2019-01-18T10:44:18.264Z,1.10
2019-01-18T10:46:12.738Z,1.00
2019-01-18T10:48:06.014Z,1.00
2019-01-18T10:49:59.437Z,1.00
2019-01-18T10:51:52.669Z,1.30
2019-01-18T10:53:46.633Z,0.87
2019-01-18T10:55:42.361Z,1.43
2019-01-18T10:57:36.534Z,5.27
2019-01-18T10:59:30.104Z,1.13
2019-01-18T11:01:23.278Z,0.70
2019-01-18T11:03:16.519Z,1.23
2019-01-18T11:05:11.023Z,0.90
2019-01-18T11:07:05.697Z,0.90
2019-01-18T11:08:59.035Z,1.07
2019-01-18T11:10:52.330Z,1.40
2019-01-18T11:12:47.734Z,1.10
2019-01-18T11:14:41.183Z,1.80
2019-01-18T11:16:34.609Z,0.90
2019-01-18T11:18:27.816Z,0.87
2019-01-18T11:20:28.742Z,0.77
2019-01-18T11:22:21.815Z,0.90
2019-01-18T11:24:14.949Z,0.70
2019-01-18T11:26:07.959Z,0.67
2019-01-18T11:28:01.386Z,0.80
2019-01-18T11:29:54.643Z,1.30
2019-01-18T11:31:47.839Z,0.87
2019-01-18T11:33:41.137Z,1.50
2019-01-18T11:35:34.427Z,0.80
2019-01-18T11:37:27.731Z,0.90
2019-01-18T11:39:21.183Z,1.23
2019-01-18T11:41:15.176Z,0.93
2019-01-18T11:43:08.168Z,0.80
2019-01-18T11:45:01.362Z,1.43
2019-01-18T11:46:54.667Z,1.07
2019-01-18T11:48:50.358Z,1.20
2019-01-18T11:50:44.069Z,1.70
2019-01-18T11:52:37.361Z,0.90
2019-01-18T11:54:31.999Z,1.23
2019-01-18T11:56:25.426Z,1.30
2019-01-18T11:58:18.679Z,1.17
2019-01-18T12:00:19.813Z,1.70
2019-01-18T12:02:15.208Z,1.07
2019-01-18T12:04:08.038Z,1.10
2019-01-18T12:06:01.332Z,1.50
2019-01-18T12:07:54.855Z,1.40
2019-01-18T12:09:49.156Z,1.20
2019-01-18T12:11:43.886Z,0.90
2019-01-18T12:13:37.530Z,1.03
2019-01-18T12:15:31.284Z,1.17
2019-01-18T12:17:24.493Z,0.93
2019-01-18T12:19:17.802Z,1.20
2019-01-18T12:21:11.151Z,1.00
2019-01-18T12:23:05.104Z,0.90
2019-01-18T12:24:59.567Z,1.13
2019-01-18T12:26:52.962Z,1.23
2019-01-18T12:28:47.449Z,1.00
2019-01-18T12:30:40.834Z,1.63
2019-01-18T12:32:34.196Z,1.30
2019-01-18T12:34:27.422Z,1.07
2019-01-18T12:36:20.821Z,1.30
2019-01-18T12:38:14.463Z,1.30
2019-01-18T12:40:09.613Z,1.30
2019-01-18T12:42:03.009Z,1.30
2019-01-18T12:43:57.829Z,1.37
2019-01-18T12:45:51.378Z,1.10
2019-01-18T12:47:44.922Z,1.03
2019-01-18T12:49:39.619Z,0.77
2019-01-18T12:51:33.282Z,1.20
2019-01-18T12:53:26.883Z,0.80
2019-01-18T12:55:20.715Z,1.20
2019-01-18T12:57:13.923Z,1.07
2019-01-18T12:59:08.577Z,1.20
2019-01-18T13:01:01.756Z,0.93
2019-01-18T13:02:55.028Z,1.00
2019-01-18T13:04:48.184Z,0.90
2019-01-18T13:06:41.386Z,1.37
2019-01-18T13:08:34.395Z,1.03
2019-01-18T13:10:27.854Z,0.70
2019-01-18T13:12:25.703Z,1.00
2019-01-18T13:14:19.015Z,1.60
2019-01-18T13:16:44.079Z,1.03
2019-01-18T13:18:37.534Z,1.30
2019-01-18T13:20:32.689Z,1.10
2019-01-18T13:22:26.540Z,1.30
2019-01-18T13:24:20.441Z,1.60
2019-01-18T13:26:17.521Z,1.73
2019-01-18T13:28:10.826Z,0.83
2019-01-18T13:30:04.589Z,1.20
2019-01-18T13:31:59.440Z,0.80
2019-01-18T13:33:52.731Z,1.80
2019-01-18T13:35:46.190Z,0.93
2019-01-18T13:37:40.495Z,1.20
2019-01-18T13:39:33.662Z,2.10
2019-01-18T13:41:26.911Z,1.70
2019-01-18T13:43:32.845Z,1.20
2019-01-18T13:45:27.478Z,4.30
2019-01-18T13:47:20.463Z,1.13
2019-01-18T13:49:13.555Z,1.53
2019-01-18T13:51:06.974Z,1.37
2019-01-18T13:53:01.216Z,1.80
2019-01-18T13:54:55.987Z,2.73
2019-01-18T13:56:49.416Z,2.00
2019-01-18T13:58:43.008Z,1.23
2019-01-18T14:00:36.354Z,1.60
2019-01-18T14:02:29.742Z,2.00
2019-01-18T14:04:23.174Z,1.80
2019-01-18T14:06:16.630Z,2.93
2019-01-18T14:08:10.039Z,3.57
2019-01-18T14:10:04.495Z,7.10
2019-01-18T14:11:58.130Z,1.70
2019-01-18T14:13:51.413Z,1.70
2019-01-18T14:15:44.557Z,1.30
2019-01-18T14:17:38.863Z,1.60
2019-01-18T14:19:32.230Z,2.43
2019-01-18T14:21:25.521Z,2.00
2019-01-18T14:23:19.435Z,1.43
2019-01-18T14:25:12.836Z,5.63
2019-01-18T14:27:06.569Z,1.73
2019-01-18T14:29:00.103Z,2.03
2019-01-18T14:30:53.835Z,1.60
2019-01-18T14:32:47.345Z,1.53
2019-01-18T14:34:40.467Z,1.73
2019-01-18T14:36:33.907Z,1.30
2019-01-18T14:38:27.010Z,1.30
2019-01-18T14:40:20.468Z,1.50
2019-01-18T14:42:14.095Z,2.27
2019-01-18T14:44:08.281Z,2.27
2019-01-18T14:46:03.858Z,2.13
2019-01-18T14:47:57.165Z,2.00
2019-01-18T14:49:50.496Z,2.13
2019-01-18T14:51:43.749Z,3.07
2019-01-18T14:53:37.039Z,3.90
2019-01-18T14:55:30.728Z,6.03
2019-01-18T14:57:24.091Z,3.93
2019-01-18T14:59:18.463Z,2.30
2019-01-18T15:01:12.262Z,7.47
2019-01-18T15:03:05.515Z,2.60
2019-01-18T15:04:58.893Z,3.27
2019-01-18T15:06:52.164Z,3.37
2019-01-18T15:08:45.274Z,1.63
2019-01-18T15:10:38.819Z,2.60
2019-01-18T15:12:32.220Z,5.03
2019-01-18T15:14:25.630Z,2.83
2019-01-18T15:16:18.872Z,1.60
2019-01-18T15:18:12.182Z,6.97
2019-01-18T15:20:06.274Z,2.63
2019-01-18T15:22:00.074Z,2.93
2019-01-18T15:23:54.656Z,2.50
2019-01-18T15:25:48.191Z,1.80
2019-01-18T15:27:41.928Z,1.80
2019-01-18T15:29:36.338Z,2.27
2019-01-18T15:31:30.611Z,3.17
2019-01-18T15:33:23.948Z,2.00
2019-01-18T15:35:20.737Z,2.10
2019-01-18T15:37:15.642Z,1.77
2019-01-18T15:39:13.353Z,1.50
2019-01-18T15:41:07.779Z,1.07
2019-01-18T15:43:02.393Z,2.67
2019-01-18T15:44:55.694Z,1.73
2019-01-18T15:46:48.943Z,2.77
2019-01-18T15:48:42.100Z,1.80
2019-01-18T15:50:38.238Z,1.90
2019-01-18T15:52:32.372Z,4.93
2019-01-18T15:54:25.714Z,5.97
2019-01-18T15:56:20.758Z,1.10
2019-01-18T15:58:14.158Z,1.60
2019-01-18T16:00:10.744Z,1.80
2019-01-18T16:02:04.370Z,2.00
2019-01-18T16:03:58.095Z,2.67
2019-01-18T16:05:51.717Z,3.77
2019-01-18T16:07:44.841Z,3.03
2019-01-18T16:09:39.217Z,1.80
2019-01-18T16:11:32.884Z,2.63
2019-01-18T16:13:25.944Z,5.20
2019-01-18T16:15:20.869Z,2.20
2019-01-18T16:17:23.420Z,4.97
2019-01-18T16:19:16.806Z,3.10
2019-01-18T16:21:10.203Z,3.93
2019-01-18T16:23:03.513Z,12.17
2019-01-18T16:24:57.529Z,8.20
2019-01-18T16:26:50.798Z,4.70
2019-01-18T16:28:46.755Z,3.57
2019-01-18T16:30:40.655Z,10.90
2019-01-18T16:32:35.698Z,2.90
2019-01-18T16:34:28.948Z,1.60
2019-01-18T16:36:22.316Z,1.13
2019-01-18T16:38:15.973Z,1.30
2019-01-18T16:40:14.102Z,1.23
2019-01-18T16:42:09.717Z,5.67
2019-01-18T16:44:02.892Z,1.30
2019-01-18T16:45:56.228Z,1.40
2019-01-18T16:47:49.600Z,0.93
2019-01-18T16:49:43.207Z,1.40
2019-01-18T16:51:38.115Z,3.87
2019-01-18T16:53:31.449Z,1.60
2019-01-18T16:55:24.684Z,1.40
2019-01-18T16:57:17.733Z,1.17
2019-01-18T16:59:10.722Z,1.73
2019-01-18T17:01:06.705Z,1.80
2019-01-18T17:02:59.930Z,1.70
2019-01-18T17:04:53.364Z,1.80
2019-01-18T17:06:51.696Z,1.30
2019-01-18T17:08:46.463Z,2.00
2019-01-18T17:10:39.937Z,3.03
2019-01-18T17:12:34.776Z,1.67
2019-01-18T17:14:29.706Z,1.50
2019-01-18T17:16:45.098Z,1.97
2019-01-18T17:18:39.540Z,1.87
2019-01-18T17:20:36.362Z,1.50
2019-01-18T17:22:29.501Z,1.50
2019-01-18T17:24:23.393Z,1.97
2019-01-18T17:26:17.050Z,1.20
2019-01-18T17:28:10.395Z,2.10
2019-01-18T17:30:03.833Z,4.50
2019-01-18T17:31:57.350Z,3.50
2019-01-18T17:33:51.018Z,3.47
2019-01-18T17:36:16.546Z,4.43
2019-01-18T17:38:55.151Z,1.93
2019-01-18T17:41:32.111Z,2.93
2019-01-18T17:44:08.692Z,2.60
2019-01-18T17:46:54.989Z,2.57
2019-01-18T17:49:48.721Z,2.40
2019-01-18T17:52:53.960Z,2.40
2019-01-18T17:55:04.765Z,2.33
2019-01-18T17:57:40.330Z,2.63
2019-01-18T18:00:47.661Z,8.80
2019-01-18T18:03:21.094Z,3.77
2019-01-18T18:06:06.331Z,4.57
2019-01-18T18:08:37.226Z,3.93
2019-01-18T18:11:16.143Z,3.67
2019-01-18T18:13:52.824Z,2.63
2019-01-18T18:16:21.289Z,2.93
2019-01-18T18:19:18.764Z,3.53
2019-01-18T18:21:49.004Z,3.60
2019-01-18T18:24:39.793Z,2.90
2019-01-18T18:27:30.570Z,3.43
2019-01-18T18:29:55.808Z,3.43
2019-01-18T18:32:18.130Z,5.73
2019-01-18T18:35:35.371Z,11.57
2019-01-18T18:38:28.588Z,2.97
2019-01-18T18:40:41.638Z,9.20
2019-01-18T18:43:30.078Z,5.17
2019-01-18T18:46:48.461Z,4.10
2019-01-18T18:49:10.772Z,4.83
2019-01-18T18:51:54.470Z,3.90
2019-01-18T18:55:01.868Z,3.63
2019-01-18T18:57:32.247Z,3.97
2019-01-18T19:00:11.548Z,3.67
2019-01-18T19:03:32.987Z,4.17
2019-01-18T19:06:49.317Z,3.30
2019-01-18T19:09:24.139Z,4.87
2019-01-18T19:12:02.580Z,8.43
2019-01-18T19:14:56.688Z,3.40
2019-01-18T19:17:47.407Z,15.63
2019-01-18T19:20:19.324Z,4.03
2019-01-18T19:22:44.725Z,9.73
2019-01-18T19:25:09.806Z,11.73
2019-01-18T19:28:33.887Z,8.13
2019-01-18T19:31:34.821Z,4.20
2019-01-18T19:34:22.610Z,7.00
2019-01-18T19:37:18.997Z,9.23
2019-01-18T19:40:37.025Z,41.33
2019-01-18T19:43:27.568Z,9.67
2019-01-18T19:46:01.466Z,6.77
2019-01-18T19:48:32.024Z,12.47
2019-01-18T19:51:19.936Z,27.93
2019-01-18T19:54:11.663Z,35.87
2019-01-18T19:56:45.987Z,16.47
2019-01-18T19:59:27.647Z,35.20
2019-01-18T20:02:25.716Z,24.13
2019-01-18T20:05:52.715Z,25.70
2019-01-18T20:08:44.767Z,9.97
2019-01-18T20:11:18.667Z,9.83
2019-01-18T20:13:54.126Z,8.30
2019-01-18T20:16:59.250Z,8.70
2019-01-18T20:19:52.406Z,8.93
2019-01-18T20:22:40.488Z,7.33
2019-01-18T20:25:38.847Z,7.97
2019-01-18T20:28:29.618Z,11.17
2019-01-18T20:31:33.273Z,13.70
2019-01-18T20:34:19.932Z,12.47
2019-01-18T20:37:12.550Z,6.57
2019-01-18T20:40:01.126Z,5.97
2019-01-18T20:42:43.631Z,7.27
2019-01-18T20:45:47.081Z,5.97
2019-01-18T20:48:53.885Z,6.57
2019-01-18T20:51:32.155Z,5.70
2019-01-18T20:54:24.323Z,8.23
2019-01-18T20:56:52.016Z,7.40
2019-01-18T20:59:19.247Z,12.43
2019-01-18T21:02:04.817Z,9.10
2019-01-18T21:04:49.517Z,9.10
2019-01-18T21:07:33.841Z,8.57
2019-01-18T21:10:33.639Z,10.07
2019-01-18T21:13:15.266Z,10.07
2019-01-18T21:16:06.690Z,8.00
2019-01-18T21:18:55.980Z,8.77
2019-01-18T21:21:36.000Z,8.93
2019-01-18T21:24:35.999Z,8.03
2019-01-18T21:27:12.359Z,8.53
2019-01-18T21:29:56.719Z,9.00
2019-01-18T21:32:54.538Z,10.17
2019-01-18T21:35:48.540Z,9.50
2019-01-18T21:38:59.464Z,9.53
2019-01-18T21:41:51.906Z,8.47
2019-01-18T21:44:41.876Z,6.87
2019-01-18T21:47:34.225Z,10.33
2019-01-18T21:50:12.962Z,10.93
2019-01-18T21:53:10.834Z,9.70
2019-01-18T21:56:03.637Z,8.40
2019-01-18T21:58:12.724Z,8.13
2019-01-18T22:00:43.551Z,8.27
2019-01-18T22:03:13.989Z,9.83
2019-01-18T22:06:13.893Z,13.10
2019-01-18T22:09:14.846Z,10.40
2019-01-18T22:11:27.571Z,9.23
2019-01-18T22:14:15.074Z,10.87
2019-01-18T22:17:29.196Z,11.40
2019-01-18T22:20:28.405Z,10.23
2019-01-18T22:23:12.606Z,10.63
2019-01-18T22:26:02.434Z,11.63
2019-01-18T22:28:52.826Z,12.17
2019-01-18T22:31:39.221Z,11.93
2019-01-18T22:34:17.662Z,11.50
2019-01-18T22:37:11.018Z,12.63
2019-01-18T22:40:11.566Z,10.80
2019-01-18T22:42:56.051Z,10.17
2019-01-18T22:45:57.872Z,12.23
2019-01-18T22:48:40.159Z,13.33
2019-01-18T22:51:35.288Z,11.83
2019-01-18T22:54:48.894Z,11.27
2019-01-18T22:57:33.320Z,11.40
2019-01-18T23:00:54.187Z,11.83
2019-01-18T23:03:29.638Z,10.47
2019-01-18T23:06:23.373Z,9.40
2019-01-18T23:09:22.480Z,9.57
2019-01-18T23:11:45.721Z,9.73
2019-01-18T23:14:58.947Z,8.50
2019-01-18T23:17:27.965Z,8.50
2019-01-18T23:20:25.618Z,8.77
2019-01-18T23:23:05.246Z,8.50
2019-01-18T23:26:21.978Z,8.70
2019-01-18T23:29:08.078Z,9.63
2019-01-18T23:31:20.227Z,8.83
2019-01-18T23:34:31.149Z,10.40
2019-01-18T23:37:18.058Z,8.07
2019-01-18T23:40:17.087Z,7.00
2019-01-18T23:42:53.780Z,6.60
2019-01-18T23:45:29.197Z,7.93
2019-01-18T23:48:23.904Z,7.07
2019-01-18T23:50:45.687Z,6.43
2019-01-18T23:53:22.591Z,5.80
2019-01-18T23:56:22.493Z,6.27
2019-01-18T23:58:49.746Z,5.70
